Time;durP1;ratioP1;P1;durP2;ratioP2;P2;SDS_P1;SDS_P2;PMS_P1;PMS_P2;Temp;Humidity;BMP_temperature;BMP_pressure;BME280_temperature;BME280_humidity;BME280_pressure;Samples;Min_cycle;Max_cycle;Signal;HPM_P1;HPM_P2
2022/05/02 00:00:59;;;;;;;11.48;2.40;;;;;;;;;;5011430;28;20068;-90
2022/05/02 00:03:38;;;;;;;13.20;2.22;;;;;;;;;;5022660;28;20048;-91
2022/05/02 00:06:07;;;;;;;16.02;2.30;;;;;;;;;;5016192;28;20096;-90
2022/05/02 00:08:50;;;;;;;8.45;1.60;;;;;;;;;;5015976;28;20033;-91
2022/05/02 00:11:17;;;;;;;7.28;2.00;;;;;;;;;;5003737;28;20084;-91
2022/05/02 00:13:43;;;;;;;6.43;1.70;;;;;;;;;;5033669;28;20029;-91
2022/05/02 00:16:20;;;;;;;13.00;2.42;;;;;;;;;;5002741;28;20097;-91
2022/05/02 00:18:46;;;;;;;12.88;2.17;;;;;;;;;;5016008;28;20099;-91
2022/05/02 00:21:13;;;;;;;12.18;1.90;;;;;;;;;;5031744;28;20030;-91
2022/05/02 00:23:57;;;;;;;11.75;2.15;;;;;;;;;;5016115;28;20033;-90
2022/05/02 00:26:24;;;;;;;12.75;2.35;;;;;;;;;;5033004;28;20056;-91
2022/05/02 00:29:25;;;;;;;11.00;2.05;;;;;;;;;;5015822;28;20061;-91
2022/05/02 00:32:04;;;;;;;14.52;2.28;;;;;;;;;;4983906;28;20041;-90
2022/05/02 00:34:31;;;;;;;11.63;2.30;;;;;;;;;;4996624;28;20088;-90
2022/05/02 00:37:02;;;;;;;11.02;1.92;;;;;;;;;;5013310;28;20471;-91
2022/05/02 00:39:28;;;;;;;12.48;2.40;;;;;;;;;;5025450;28;20125;-90
2022/05/02 00:44:57;;;;;;;11.57;2.40;;;;;;;;;;5032825;28;20112;-90
2022/05/02 00:47:42;;;;;;;10.63;2.53;;;;;;;;;;5014224;28;20030;-90
2022/05/02 00:50:10;;;;;;;9.88;2.35;;;;;;;;;;5026191;28;20369;-90
2022/05/02 00:52:47;;;;;;;13.52;2.33;;;;;;;;;;5010911;28;20065;-91
2022/05/02 00:55:13;;;;;;;7.00;1.85;;;;;;;;;;5020731;28;20034;-92
2022/05/02 00:57:40;;;;;;;12.45;2.10;;;;;;;;;;5034815;28;20095;-91
2022/05/02 01:00:23;;;;;;;10.77;2.05;;;;;;;;;;5024277;28;20034;-91
2022/05/02 01:02:49;;;;;;;12.45;2.35;;;;;;;;;;5002316;28;20033;-90
2022/05/02 01:05:16;;;;;;;15.45;2.40;;;;;;;;;;5018788;28;20048;-91
2022/05/02 01:07:46;;;;;;;9.75;1.70;;;;;;;;;;5035130;28;20029;-90
2022/05/02 01:10:17;;;;;;;12.82;2.88;;;;;;;;;;5027300;28;20065;-91
2022/05/02 01:12:47;;;;;;;9.32;2.08;;;;;;;;;;5017798;28;20041;-92
2022/05/02 01:15:14;;;;;;;9.43;2.05;;;;;;;;;;5018670;28;20128;-92
2022/05/02 01:17:49;;;;;;;7.45;1.73;;;;;;;;;;5027418;28;20049;-92
2022/05/02 01:20:15;;;;;;;16.23;2.17;;;;;;;;;;5014366;28;20049;-92
2022/05/02 01:22:53;;;;;;;14.10;2.25;;;;;;;;;;5017279;28;20079;-91
2022/05/02 01:25:19;;;;;;;10.27;2.15;;;;;;;;;;5015083;28;20117;-91
2022/05/02 01:27:47;;;;;;;6.97;2.65;;;;;;;;;;5019782;28;20543;-90
2022/05/02 01:30:50;;;;;;;10.07;2.45;;;;;;;;;;5015544;28;20121;-91
2022/05/02 01:36:23;;;;;;;8.30;2.47;;;;;;;;;;5032068;28;20115;-92
2022/05/02 01:38:50;;;;;;;9.63;2.25;;;;;;;;;;5014658;28;20485;-91
2022/05/02 01:41:21;;;;;;;10.23;1.90;;;;;;;;;;5028535;28;20403;-92
2022/05/02 01:43:48;;;;;;;9.77;2.40;;;;;;;;;;5033988;28;20030;-91
2022/05/02 01:46:22;;;;;;;11.05;2.55;;;;;;;;;;5035696;28;20116;-90
2022/05/02 01:48:51;;;;;;;8.48;2.10;;;;;;;;;;5015585;28;20040;-91
2022/05/02 01:51:21;;;;;;;9.48;2.15;;;;;;;;;;5022379;28;20493;-91
2022/05/02 01:53:48;;;;;;;8.20;1.55;;;;;;;;;;5016972;28;20045;-91
2022/05/02 01:56:14;;;;;;;5.63;1.67;;;;;;;;;;5017022;28;20038;-90
2022/05/02 01:58:44;;;;;;;9.32;2.15;;;;;;;;;;5011431;28;20036;-91
2022/05/02 02:01:11;;;;;;;8.88;2.10;;;;;;;;;;5032926;28;20033;-90
2022/05/02 02:03:43;;;;;;;8.88;2.22;;;;;;;;;;5016926;28;20041;-90
2022/05/02 02:06:10;;;;;;;15.07;3.17;;;;;;;;;;5029346;28;20513;-90
2022/05/02 02:08:39;;;;;;;17.40;3.20;;;;;;;;;;5034596;28;20041;-91
2022/05/02 02:11:12;;;;;;;11.75;2.65;;;;;;;;;;5033568;28;20481;-90
2022/05/02 02:13:39;;;;;;;16.13;2.90;;;;;;;;;;5034369;28;20025;-90
2022/05/02 02:16:10;;;;;;;12.18;2.58;;;;;;;;;;5016412;28;20030;-90
2022/05/02 02:18:41;;;;;;;10.55;2.72;;;;;;;;;;5016423;28;20045;-90
2022/05/02 02:21:10;;;;;;;14.85;3.13;;;;;;;;;;5030521;28;20116;-90
2022/05/02 02:23:37;;;;;;;16.85;3.45;;;;;;;;;;5016811;28;20049;-90
2022/05/02 02:26:07;;;;;;;15.65;3.28;;;;;;;;;;5033271;28;20025;-89
2022/05/02 02:28:34;;;;;;;16.13;3.05;;;;;;;;;;5016259;28;20100;-90
2022/05/02 02:31:10;;;;;;;9.13;2.47;;;;;;;;;;5027489;28;20453;-90
2022/05/02 02:33:43;;;;;;;18.48;3.08;;;;;;;;;;5030906;28;20515;-90
2022/05/02 02:36:10;;;;;;;9.13;3.00;;;;;;;;;;5016062;28;20037;-89
2022/05/02 02:38:37;;;;;;;13.40;2.70;;;;;;;;;;5019095;28;20069;-90
2022/05/02 02:41:19;;;;;;;17.73;3.60;;;;;;;;;;5022673;28;20029;-90
2022/05/02 02:43:46;;;;;;;13.27;3.78;;;;;;;;;;5033494;28;20469;-90
2022/05/02 02:49:15;;;;;;;11.70;2.88;;;;;;;;;;5025896;28;20021;-90
2022/05/02 02:51:41;;;;;;;15.18;3.17;;;;;;;;;;5014733;28;20551;-91
2022/05/02 02:54:07;;;;;;;13.45;3.22;;;;;;;;;;5009956;28;20042;-90
2022/05/02 02:56:38;;;;;;;15.55;3.13;;;;;;;;;;5016080;28;20128;-91
2022/05/02 02:59:04;;;;;;;16.60;4.07;;;;;;;;;;5012820;28;20033;-90
2022/05/02 03:01:31;;;;;;;20.85;3.97;;;;;;;;;;5032814;28;20033;-90
2022/05/02 03:03:58;;;;;;;13.75;3.78;;;;;;;;;;5015119;28;20034;-90
2022/05/02 03:06:27;;;;;;;18.33;4.07;;;;;;;;;;5030905;28;20473;-90
2022/05/02 03:08:54;;;;;;;24.95;3.90;;;;;;;;;;5010438;28;20029;-90
2022/05/02 03:11:21;;;;;;;14.15;3.50;;;;;;;;;;5015550;28;20476;-91
2022/05/02 03:13:48;;;;;;;15.77;3.92;;;;;;;;;;5015608;28;20092;-90
2022/05/02 03:16:17;;;;;;;16.77;3.42;;;;;;;;;;5032401;28;20034;-90
2022/05/02 03:18:43;;;;;;;18.27;3.42;;;;;;;;;;5033211;28;20485;-90
2022/05/02 03:21:19;;;;;;;10.13;2.78;;;;;;;;;;5022939;28;20040;-90
2022/05/02 03:23:46;;;;;;;14.15;2.55;;;;;;;;;;5016072;28;20083;-90
2022/05/02 03:26:12;;;;;;;11.45;3.28;;;;;;;;;;5011605;28;20477;-90
2022/05/02 03:28:42;;;;;;;12.95;2.70;;;;;;;;;;5033342;28;20034;-90
2022/05/02 03:31:08;;;;;;;13.00;3.65;;;;;;;;;;5015652;28;20021;-90
2022/05/02 03:33:35;;;;;;;13.75;3.15;;;;;;;;;;5015712;28;20395;-90
2022/05/02 03:36:06;;;;;;;12.77;2.80;;;;;;;;;;5012219;28;20448;-91
2022/05/02 03:38:32;;;;;;;16.35;2.78;;;;;;;;;;5027202;28;20065;-90
2022/05/02 03:41:02;;;;;;;14.05;2.67;;;;;;;;;;5014181;28;20049;-90
2022/05/02 03:43:29;;;;;;;14.07;2.90;;;;;;;;;;5022424;28;20036;-90
2022/05/02 03:45:55;;;;;;;17.38;2.67;;;;;;;;;;5014391;28;20037;-91
2022/05/02 03:48:26;;;;;;;14.15;2.70;;;;;;;;;;5014492;28;20041;-89
2022/05/02 03:50:53;;;;;;;13.45;2.45;;;;;;;;;;5020334;28;20037;-90
2022/05/02 03:53:20;;;;;;;9.63;2.45;;;;;;;;;;5016990;28;20053;-90
2022/05/02 03:56:01;;;;;;;11.98;3.00;;;;;;;;;;5014636;28;20068;-91
2022/05/02 03:58:27;;;;;;;15.20;3.22;;;;;;;;;;5031519;28;20033;-90
2022/05/02 04:00:58;;;;;;;8.43;2.53;;;;;;;;;;5014676;28;20033;-91
2022/05/02 04:03:24;;;;;;;18.02;3.17;;;;;;;;;;5015782;28;20072;-91
2022/05/02 04:05:54;;;;;;;15.48;3.28;;;;;;;;;;5011403;28;20034;-90
2022/05/02 04:08:20;;;;;;;8.77;3.00;;;;;;;;;;5014873;28;20112;-91
2022/05/02 04:10:48;;;;;;;12.27;3.35;;;;;;;;;;5014634;28;20381;-90
2022/05/02 04:13:14;;;;;;;16.92;3.25;;;;;;;;;;5014804;28;20087;-90
2022/05/02 04:15:43;;;;;;;18.60;3.88;;;;;;;;;;5034618;28;20033;-91
2022/05/02 04:18:09;;;;;;;15.05;3.80;;;;;;;;;;5018483;28;20029;-90
2022/05/02 04:20:43;;;;;;;13.20;4.78;;;;;;;;;;5026161;28;20067;-89
2022/05/02 04:23:09;;;;;;;17.55;4.10;;;;;;;;;;5014287;28;20041;-91
2022/05/02 04:25:38;;;;;;;17.85;3.75;;;;;;;;;;5016449;28;20072;-90
2022/05/02 04:28:05;;;;;;;14.57;2.90;;;;;;;;;;5035982;28;20107;-90
2022/05/02 04:30:33;;;;;;;9.77;2.58;;;;;;;;;;5027376;28;20499;-90
2022/05/02 04:32:59;;;;;;;10.70;2.80;;;;;;;;;;5021379;28;20127;-91
2022/05/02 04:35:26;;;;;;;11.80;2.70;;;;;;;;;;5026090;28;20134;-90
2022/05/02 04:37:52;;;;;;;16.23;3.17;;;;;;;;;;5035289;28;20048;-91
2022/05/02 04:40:19;;;;;;;15.57;3.25;;;;;;;;;;5015468;28;20033;-91
2022/05/02 04:42:48;;;;;;;12.07;3.38;;;;;;;;;;5009406;28;20068;-90
2022/05/02 04:45:28;;;;;;;15.50;3.30;;;;;;;;;;5012596;28;20484;-91
2022/05/02 04:47:54;;;;;;;17.55;2.65;;;;;;;;;;5018142;28;20029;-89
2022/05/02 04:50:38;;;;;;;11.02;2.42;;;;;;;;;;5003277;28;20038;-90
2022/05/02 04:53:05;;;;;;;16.40;3.05;;;;;;;;;;5018284;28;20049;-90
2022/05/02 04:55:32;;;;;;;13.23;2.67;;;;;;;;;;5029065;28;20037;-89
2022/05/02 04:58:09;;;;;;;17.33;2.97;;;;;;;;;;5018579;28;20045;-90
2022/05/02 05:00:36;;;;;;;15.10;3.05;;;;;;;;;;5016748;28;20037;-90
2022/05/02 05:05:51;;;;;;;12.32;3.05;;;;;;;;;;5025632;28;20500;-91
2022/05/02 05:08:25;;;;;;;16.88;3.33;;;;;;;;;;5029101;28;20105;-89
2022/05/02 05:11:03;;;;;;;9.30;2.88;;;;;;;;;;5033578;28;20064;-90
2022/05/02 05:13:35;;;;;;;18.70;3.33;;;;;;;;;;5009813;28;20084;-91
2022/05/02 05:16:21;;;;;;;11.77;2.75;;;;;;;;;;5013195;28;20459;-89
2022/05/02 05:18:57;;;;;;;12.73;2.85;;;;;;;;;;5034587;28;20384;-90
2022/05/02 05:21:25;;;;;;;9.02;3.13;;;;;;;;;;5034123;28;20488;-89
2022/05/02 05:23:55;;;;;;;12.05;2.95;;;;;;;;;;5030976;28;20674;-91
2022/05/02 05:26:44;;;;;;;18.13;3.03;;;;;;;;;;5031161;28;20060;-90
2022/05/02 05:29:10;;;;;;;11.50;2.33;;;;;;;;;;5031824;28;20086;-89
2022/05/02 05:31:43;;;;;;;11.32;2.30;;;;;;;;;;5032958;28;20311;-90
2022/05/02 05:34:16;;;;;;;8.98;2.38;;;;;;;;;;5035287;28;20044;-91
2022/05/02 05:37:01;;;;;;;11.73;2.05;;;;;;;;;;5034702;28;20150;-91
2022/05/02 05:39:37;;;;;;;15.55;2.33;;;;;;;;;;5023789;28;20546;-90
2022/05/02 05:42:09;;;;;;;13.23;1.98;;;;;;;;;;5017513;28;20061;-90
2022/05/02 05:44:57;;;;;;;9.93;2.50;;;;;;;;;;5032789;28;20384;-91
2022/05/02 05:47:26;;;;;;;7.85;2.20;;;;;;;;;;5012506;28;20030;-90
2022/05/02 05:53:18;;;;;;;8.82;2.60;;;;;;;;;;5025716;28;20496;-90
2022/05/02 05:56:15;;;;;;;6.80;2.47;;;;;;;;;;5014426;28;20041;-91
2022/05/02 05:59:09;;;;;;;13.02;2.40;;;;;;;;;;4998306;28;20065;-91
2022/05/02 06:02:02;;;;;;;10.02;2.50;;;;;;;;;;5016565;28;20048;-90
2022/05/02 06:04:33;;;;;;;13.55;3.20;;;;;;;;;;5018535;28;20030;-90
2022/05/02 06:07:00;;;;;;;7.70;2.08;;;;;;;;;;5017082;28;20128;-90
2022/05/02 06:09:31;;;;;;;16.00;3.10;;;;;;;;;;5032664;28;20034;-90
2022/05/02 06:11:58;;;;;;;11.70;2.70;;;;;;;;;;5027290;28;20041;-90
2022/05/02 06:14:30;;;;;;;13.15;2.72;;;;;;;;;;5017054;28;20042;-91
2022/05/02 06:19:50;;;;;;;14.77;2.97;;;;;;;;;;5032543;28;20044;-90
2022/05/02 06:22:18;;;;;;;17.25;2.90;;;;;;;;;;5012190;28;20029;-90
2022/05/02 06:24:46;;;;;;;18.48;3.20;;;;;;;;;;5030204;28;20120;-90
2022/05/02 06:27:16;;;;;;;10.98;3.03;;;;;;;;;;5027174;28;20395;-89
2022/05/02 06:29:46;;;;;;;16.90;3.58;;;;;;;;;;5028622;28;20420;-90
2022/05/02 06:32:13;;;;;;;16.58;3.08;;;;;;;;;;5011998;28;20037;-90
2022/05/02 06:34:40;;;;;;;12.18;3.10;;;;;;;;;;5031606;28;20030;-90
2022/05/02 06:37:07;;;;;;;15.80;3.50;;;;;;;;;;5032413;28;20052;-91
2022/05/02 06:39:33;;;;;;;19.30;3.17;;;;;;;;;;5032104;28;20037;-90
2022/05/02 06:42:15;;;;;;;17.30;3.42;;;;;;;;;;5016145;28;20036;-90
2022/05/02 06:45:12;;;;;;;20.20;3.70;;;;;;;;;;5022160;28;20030;-90
2022/05/02 06:47:38;;;;;;;14.52;3.85;;;;;;;;;;5004209;28;20026;-90
2022/05/02 06:50:07;;;;;;;16.80;4.20;;;;;;;;;;5021925;28;20593;-91
2022/05/02 06:52:37;;;;;;;19.40;3.70;;;;;;;;;;5014669;28;20034;-90
2022/05/02 06:55:29;;;;;;;15.80;3.60;;;;;;;;;;5015880;28;20095;-89
2022/05/02 06:58:22;;;;;;;15.90;3.58;;;;;;;;;;5031785;28;20042;-90
2022/05/02 07:01:23;;;;;;;19.40;4.50;;;;;;;;;;5015078;28;20045;-92
2022/05/02 07:04:08;;;;;;;23.63;3.50;;;;;;;;;;5012424;28;20044;-90
2022/05/02 07:06:46;;;;;;;18.02;4.30;;;;;;;;;;5021371;28;20022;-90
2022/05/02 07:09:23;;;;;;;12.95;3.25;;;;;;;;;;5016131;28;20484;-89
2022/05/02 07:12:11;;;;;;;21.67;4.43;;;;;;;;;;5031404;28;20048;-90
2022/05/02 07:20:47;;;;;;;9.90;3.50;;;;;;;;;;5028230;28;20477;-90
2022/05/02 07:23:13;;;;;;;20.45;4.30;;;;;;;;;;5015810;28;20029;-90
2022/05/02 07:25:58;;;;;;;17.83;4.38;;;;;;;;;;5006175;28;20030;-91
2022/05/02 07:28:27;;;;;;;17.17;4.60;;;;;;;;;;5016000;28;20595;-91
2022/05/02 07:30:57;;;;;;;19.85;5.28;;;;;;;;;;5015547;28;20033;-89
2022/05/02 07:33:25;;;;;;;20.50;4.55;;;;;;;;;;5024113;28;20033;-89
2022/05/02 07:35:56;;;;;;;15.00;4.45;;;;;;;;;;5009524;28;20490;-90
2022/05/02 07:38:38;;;;;;;19.20;3.67;;;;;;;;;;5025454;28;20509;-91
2022/05/02 07:44:13;;;;;;;19.92;5.07;;;;;;;;;;5030865;28;20123;-90
2022/05/02 07:46:44;;;;;;;22.27;4.22;;;;;;;;;;5009448;28;20030;-90
2022/05/02 07:49:11;;;;;;;15.02;4.07;;;;;;;;;;5031446;28;20125;-90
2022/05/02 07:51:50;;;;;;;19.95;4.30;;;;;;;;;;5019197;28;20060;-90
2022/05/02 07:54:22;;;;;;;19.17;4.75;;;;;;;;;;5024255;28;20129;-90
2022/05/02 07:56:50;;;;;;;14.15;3.53;;;;;;;;;;5011893;28;20037;-90
2022/05/02 07:59:17;;;;;;;12.73;3.63;;;;;;;;;;5032309;28;20041;-90
2022/05/02 08:04:40;;;;;;;19.50;3.85;;;;;;;;;;5036954;28;20014;-90
2022/05/02 08:07:39;;;;;;;10.25;3.28;;;;;;;;;;5017314;28;20056;-90
2022/05/02 08:10:11;;;;;;;18.63;3.95;;;;;;;;;;5005652;28;20552;-90
2022/05/02 08:12:40;;;;;;;16.17;3.60;;;;;;;;;;5029724;28;20040;-90
2022/05/02 08:15:26;;;;;;;12.93;4.13;;;;;;;;;;5017825;28;20034;-89
2022/05/02 08:18:28;;;;;;;20.23;4.20;;;;;;;;;;5029899;28;20044;-89
2022/05/02 08:21:04;;;;;;;15.85;3.90;;;;;;;;;;5032819;28;20436;-90
2022/05/02 08:30:02;;;;;;;18.80;3.33;;;;;;;;;;5021324;28;20040;-89
2022/05/02 08:32:47;;;;;;;26.23;3.78;;;;;;;;;;5035452;28;20060;-89
2022/05/02 08:35:39;;;;;;;13.23;3.30;;;;;;;;;;5034851;28;20030;-90
2022/05/02 08:38:23;;;;;;;10.50;3.35;;;;;;;;;;5017754;28;20033;-89
2022/05/02 08:44:22;;;;;;;18.35;4.00;;;;;;;;;;5031368;28;20424;-90
2022/05/02 08:47:07;;;;;;;13.00;3.85;;;;;;;;;;5017331;28;20509;-89
2022/05/02 08:49:52;;;;;;;14.82;3.53;;;;;;;;;;5015749;28;20149;-90
2022/05/02 08:52:18;;;;;;;24.05;5.00;;;;;;;;;;5031653;28;20488;-90
2022/05/02 08:54:59;;;;;;;13.93;3.95;;;;;;;;;;5021333;28;20045;-88
2022/05/02 09:01:06;;;;;;;19.48;3.50;;;;;;;;;;4974018;28;20035;-90
2022/05/02 09:03:33;;;;;;;19.17;4.28;;;;;;;;;;4969555;28;20379;-90
2022/05/02 09:06:18;;;;;;;15.15;3.22;;;;;;;;;;5018041;28;20041;-90
2022/05/02 09:09:19;;;;;;;13.65;3.47;;;;;;;;;;5017623;28;20037;-89
2022/05/02 09:11:56;;;;;;;17.40;4.22;;;;;;;;;;5017858;28;20029;-91
2022/05/02 09:14:55;;;;;;;18.33;3.50;;;;;;;;;;5016179;28;20052;-90
2022/05/02 09:17:47;;;;;;;16.10;3.78;;;;;;;;;;5031247;28;20030;-88
2022/05/02 09:20:39;;;;;;;15.23;3.55;;;;;;;;;;5024025;28;20033;-90
2022/05/02 09:23:12;;;;;;;12.25;3.97;;;;;;;;;;5033266;28;20037;-89
2022/05/02 09:26:04;;;;;;;16.63;3.72;;;;;;;;;;5017513;28;20040;-90
2022/05/02 09:28:33;;;;;;;17.95;4.22;;;;;;;;;;5033904;28;20021;-90
2022/05/02 09:31:20;;;;;;;13.93;3.13;;;;;;;;;;5009237;28;20499;-90
2022/05/02 09:33:56;;;;;;;17.45;3.63;;;;;;;;;;5017483;28;20045;-90
2022/05/02 09:36:32;;;;;;;17.55;3.50;;;;;;;;;;5034631;28;20087;-89
2022/05/02 09:39:04;;;;;;;15.63;3.33;;;;;;;;;;5016718;28;20128;-90
2022/05/02 09:41:36;;;;;;;21.75;4.13;;;;;;;;;;5033512;28;20112;-90
2022/05/02 09:50:29;;;;;;;18.33;3.85;;;;;;;;;;5001443;28;20081;-90
2022/05/02 09:53:06;;;;;;;23.52;4.43;;;;;;;;;;4983459;28;20053;-89
2022/05/02 09:58:35;;;;;;;15.70;3.60;;;;;;;;;;5034435;28;20048;-89
2022/05/02 10:03:59;;;;;;;17.77;3.45;;;;;;;;;;5034030;28;20031;-90
2022/05/02 10:06:36;;;;;;;17.13;3.25;;;;;;;;;;5021421;28;20025;-89
2022/05/02 10:09:31;;;;;;;19.50;4.10;;;;;;;;;;5017375;28;20037;-89
2022/05/02 10:12:02;;;;;;;16.40;3.03;;;;;;;;;;4983569;28;20034;-89
2022/05/02 10:14:47;;;;;;;21.30;3.58;;;;;;;;;;5033656;28;20026;-90
2022/05/02 10:17:17;;;;;;;19.80;3.83;;;;;;;;;;5029291;28;20056;-90
2022/05/02 10:20:04;;;;;;;18.13;3.53;;;;;;;;;;5032450;28;20049;-89
2022/05/02 10:22:59;;;;;;;14.80;3.35;;;;;;;;;;5029844;28;20041;-90
2022/05/02 10:25:32;;;;;;;16.95;2.90;;;;;;;;;;4998230;28;20065;-90
2022/05/02 10:28:15;;;;;;;16.45;4.13;;;;;;;;;;5012152;28;20125;-90
2022/05/02 10:30:54;;;;;;;23.10;3.88;;;;;;;;;;5016583;28;20515;-89
2022/05/02 10:33:58;;;;;;;11.32;2.85;;;;;;;;;;5010595;28;20397;-90
2022/05/02 10:36:40;;;;;;;14.93;3.17;;;;;;;;;;4966158;28;20062;-88
2022/05/02 10:39:25;;;;;;;18.17;3.58;;;;;;;;;;5007439;28;20069;-90
2022/05/02 10:41:53;;;;;;;12.90;3.30;;;;;;;;;;5027905;28;20030;-89
2022/05/02 10:44:38;;;;;;;24.02;3.90;;;;;;;;;;5015296;28;20032;-89
2022/05/02 10:47:04;;;;;;;18.05;3.92;;;;;;;;;;5015315;28;20041;-89
2022/05/02 10:49:53;;;;;;;16.60;3.47;;;;;;;;;;5017600;28;20061;-90
2022/05/02 10:52:19;;;;;;;16.95;3.70;;;;;;;;;;5015642;28;20038;-89
2022/05/02 10:54:51;;;;;;;20.38;4.30;;;;;;;;;;5032405;28;20077;-89
2022/05/02 10:57:32;;;;;;;17.70;4.13;;;;;;;;;;5002590;28;20034;-90
2022/05/02 11:00:06;;;;;;;17.65;3.80;;;;;;;;;;5033309;28;20042;-89
2022/05/02 11:02:55;;;;;;;22.77;3.85;;;;;;;;;;5031436;28;20037;-90
2022/05/02 11:05:30;;;;;;;23.02;4.35;;;;;;;;;;5008085;28;20396;-90
2022/05/02 11:08:19;;;;;;;24.42;4.85;;;;;;;;;;5023561;28;20030;-91
2022/05/02 11:11:04;;;;;;;16.65;4.55;;;;;;;;;;5033439;28;20121;-89
2022/05/02 11:13:39;;;;;;;17.60;4.10;;;;;;;;;;5027822;28;20044;-91
2022/05/02 11:21:59;;;;;;;19.63;4.05;;;;;;;;;;5031800;28;20044;-90
2022/05/02 11:24:28;;;;;;;22.92;2.85;;;;;;;;;;5030482;28;20041;-90
2022/05/02 11:27:18;;;;;;;19.73;3.88;;;;;;;;;;5014175;28;20087;-90
2022/05/02 11:29:57;;;;;;;19.10;4.05;;;;;;;;;;4981185;28;20673;-89
2022/05/02 11:32:42;;;;;;;28.45;4.18;;;;;;;;;;5015775;28;20037;-90
2022/05/02 11:38:35;;;;;;;26.92;4.88;;;;;;;;;;5027105;28;20051;-90
2022/05/02 11:41:15;;;;;;;16.30;3.88;;;;;;;;;;5013077;28;20044;-90
2022/05/02 11:43:42;;;;;;;22.40;3.25;;;;;;;;;;5026360;28;20034;-90
2022/05/02 11:46:26;;;;;;;23.60;3.40;;;;;;;;;;5012708;28;20037;-90
2022/05/02 11:49:11;;;;;;;16.83;4.13;;;;;;;;;;5031137;28;20508;-90
2022/05/02 11:54:42;;;;;;;16.85;3.50;;;;;;;;;;5028385;28;20447;-90
2022/05/02 12:00:14;;;;;;;22.63;4.32;;;;;;;;;;5030661;28;20044;-90
2022/05/02 12:03:14;;;;;;;19.30;3.70;;;;;;;;;;5011468;28;20398;-90
2022/05/02 12:05:42;;;;;;;27.00;4.45;;;;;;;;;;5010907;28;20025;-90
2022/05/02 12:08:09;;;;;;;18.42;3.92;;;;;;;;;;5031170;28;20037;-90
2022/05/02 12:10:41;;;;;;;21.40;3.80;;;;;;;;;;5012909;28;20393;-90
2022/05/02 12:13:12;;;;;;;20.65;4.20;;;;;;;;;;5000502;28;20053;-90
2022/05/02 12:15:56;;;;;;;24.52;4.30;;;;;;;;;;5010597;28;20041;-90
2022/05/02 12:18:52;;;;;;;18.38;4.00;;;;;;;;;;5030528;28;20051;-91
2022/05/02 12:21:31;;;;;;;19.58;4.43;;;;;;;;;;5017966;28;20056;-90
2022/05/02 12:23:59;;;;;;;21.83;3.97;;;;;;;;;;5015638;28;20083;-90
2022/05/02 12:26:33;;;;;;;20.33;3.53;;;;;;;;;;5011352;28;20053;-90
2022/05/02 12:29:04;;;;;;;16.85;3.83;;;;;;;;;;5021837;28;20034;-90
2022/05/02 12:31:37;;;;;;;35.13;4.70;;;;;;;;;;5013749;28;20040;-90
2022/05/02 12:36:57;;;;;;;26.98;4.88;;;;;;;;;;5032739;28;20376;-89
2022/05/02 12:39:28;;;;;;;24.60;4.68;;;;;;;;;;5018556;28;20512;-90
2022/05/02 12:41:59;;;;;;;18.83;4.60;;;;;;;;;;5017739;28;20038;-90
2022/05/02 12:44:29;;;;;;;20.77;4.30;;;;;;;;;;5034292;28;20120;-90
2022/05/02 12:46:56;;;;;;;31.60;5.10;;;;;;;;;;5008279;28;20030;-88
2022/05/02 12:52:16;;;;;;;24.67;4.53;;;;;;;;;;5035341;28;20029;-89
2022/05/02 12:54:48;;;;;;;21.85;4.38;;;;;;;;;;5012903;28;20050;-88
2022/05/02 13:00:39;;;;;;;25.15;4.43;;;;;;;;;;5035667;28;20099;-89
2022/05/02 13:03:11;;;;;;;22.40;3.95;;;;;;;;;;5027533;28;20080;-89
2022/05/02 13:05:56;;;;;;;29.08;5.72;;;;;;;;;;5013500;28;20033;-89
2022/05/02 13:08:33;;;;;;;22.67;5.20;;;;;;;;;;5015650;28;20215;-89
2022/05/02 13:11:07;;;;;;;16.88;4.78;;;;;;;;;;5015150;28;20133;-89
2022/05/02 13:14:13;;;;;;;24.70;4.25;;;;;;;;;;5016920;28;20437;-89
2022/05/02 13:16:40;;;;;;;23.58;4.75;;;;;;;;;;4934071;29;20059;-89
2022/05/02 13:19:07;;;;;;;20.60;5.32;;;;;;;;;;4952325;29;20093;-89
2022/05/02 13:21:40;;;;;;;19.60;5.50;;;;;;;;;;4950191;29;21975;-89
2022/05/02 13:24:09;;;;;;;26.52;8.30;;;;;;;;;;4935785;29;20034;-89
2022/05/02 13:26:38;;;;;;;35.03;11.18;;;;;;;;;;4934480;29;20031;-89
2022/05/02 13:29:18;;;;;;;37.72;13.70;;;;;;;;;;4934370;29;20059;-89
2022/05/02 13:31:44;;;;;;;42.60;17.17;;;;;;;;;;4931556;29;20192;-89
2022/05/02 13:34:21;;;;;;;38.92;17.63;;;;;;;;;;4982505;28;20567;-89
2022/05/02 13:37:07;;;;;;;35.72;15.90;;;;;;;;;;5014361;28;20499;-89
2022/05/02 13:39:47;;;;;;;36.03;14.50;;;;;;;;;;5006321;28;20456;-90
2022/05/02 13:42:16;;;;;;;27.85;11.43;;;;;;;;;;5001315;28;20057;-90
2022/05/02 13:44:58;;;;;;;24.77;9.27;;;;;;;;;;5035184;28;20469;-90
2022/05/02 13:47:33;;;;;;;28.13;8.18;;;;;;;;;;5032821;28;20029;-90
2022/05/02 13:50:03;;;;;;;30.17;7.53;;;;;;;;;;5024484;28;20038;-90
2022/05/02 13:52:38;;;;;;;28.88;8.32;;;;;;;;;;5034866;28;20029;-89
2022/05/02 13:55:29;;;;;;;23.52;8.90;;;;;;;;;;5028920;28;20074;-90
2022/05/02 13:57:56;;;;;;;27.83;7.65;;;;;;;;;;5021985;28;20030;-90
2022/05/02 14:03:23;;;;;;;25.95;7.03;;;;;;;;;;5028910;28;20021;-90
2022/05/02 14:08:32;;;;;;;23.88;6.72;;;;;;;;;;5034547;28;20056;-90
2022/05/02 14:11:02;;;;;;;38.90;7.50;;;;;;;;;;5031327;28;20497;-89
2022/05/02 14:13:32;;;;;;;29.00;6.43;;;;;;;;;;5015344;28;20064;-90
2022/05/02 14:16:08;;;;;;;32.40;6.38;;;;;;;;;;5015674;28;21071;-90
2022/05/02 14:18:50;;;;;;;24.23;6.90;;;;;;;;;;5013200;28;20404;-90
2022/05/02 14:21:25;;;;;;;26.58;6.65;;;;;;;;;;5015899;28;20041;-90
2022/05/02 14:23:59;;;;;;;35.15;7.38;;;;;;;;;;5016998;28;20494;-89
2022/05/02 14:26:26;;;;;;;30.20;8.07;;;;;;;;;;5031295;28;20053;-90
2022/05/02 14:28:55;;;;;;;32.60;7.32;;;;;;;;;;5032941;28;20120;-90
2022/05/02 14:31:24;;;;;;;27.98;8.10;;;;;;;;;;5033484;28;20060;-90
2022/05/02 14:33:51;;;;;;;20.63;7.57;;;;;;;;;;5033371;28;20545;-91
2022/05/02 14:36:26;;;;;;;29.23;7.82;;;;;;;;;;5016415;28;20087;-89
2022/05/02 14:38:52;;;;;;;27.80;7.55;;;;;;;;;;5005540;28;20065;-89
2022/05/02 14:41:19;;;;;;;30.02;7.63;;;;;;;;;;5015997;28;20037;-89
2022/05/02 14:43:45;;;;;;;32.45;8.23;;;;;;;;;;5015212;28;20026;-89
2022/05/02 14:46:13;;;;;;;44.83;9.73;;;;;;;;;;5015836;28;20029;-90
2022/05/02 14:48:53;;;;;;;34.90;10.10;;;;;;;;;;5016286;28;20061;-90
2022/05/02 14:51:25;;;;;;;31.95;8.93;;;;;;;;;;5015148;28;20034;-89
2022/05/02 14:53:56;;;;;;;32.03;9.45;;;;;;;;;;5011851;28;20069;-90
2022/05/02 14:56:26;;;;;;;34.20;8.15;;;;;;;;;;5016558;28;20060;-90
2022/05/02 14:58:54;;;;;;;28.88;7.45;;;;;;;;;;5010759;28;20484;-91
2022/05/02 15:01:22;;;;;;;37.17;7.97;;;;;;;;;;5009618;28;20030;-89
2022/05/02 15:04:05;;;;;;;26.58;7.38;;;;;;;;;;5022856;28;20524;-91
2022/05/02 15:06:35;;;;;;;30.52;7.63;;;;;;;;;;5032859;28;20029;-91
2022/05/02 15:09:17;;;;;;;29.30;6.38;;;;;;;;;;5016076;28;20033;-90
2022/05/02 15:15:12;;;;;;;26.73;6.85;;;;;;;;;;5033887;28;20025;-90
2022/05/02 15:17:44;;;;;;;19.15;5.88;;;;;;;;;;4997261;28;20038;-90
2022/05/02 15:20:20;;;;;;;30.80;6.72;;;;;;;;;;5015715;28;20041;-90
2022/05/02 15:23:07;;;;;;;26.73;6.40;;;;;;;;;;5012066;28;20061;-91
2022/05/02 15:25:33;;;;;;;41.47;7.40;;;;;;;;;;5015891;28;20033;-89
2022/05/02 15:36:50;;;;;;;36.17;9.15;;;;;;;;;;5028938;28;20041;-90
2022/05/02 15:39:22;;;;;;;46.75;9.90;;;;;;;;;;5014430;28;20072;-89
2022/05/02 15:41:55;;;;;;;38.33;9.75;;;;;;;;;;5015202;28;20493;-90
2022/05/02 15:44:25;;;;;;;37.53;8.70;;;;;;;;;;5014430;28;20443;-90
2022/05/02 15:52:58;;;;;;;38.10;8.15;;;;;;;;;;5033222;28;20362;-90
2022/05/02 15:55:43;;;;;;;43.03;8.35;;;;;;;;;;5030151;28;20052;-90
2022/05/02 15:58:11;;;;;;;27.40;6.47;;;;;;;;;;5027301;28;20384;-91
2022/05/02 16:04:03;;;;;;;26.38;6.82;;;;;;;;;;5029506;28;20032;-90
2022/05/02 16:06:30;;;;;;;30.35;7.90;;;;;;;;;;5020208;28;20047;-89
2022/05/02 16:11:58;;;;;;;29.80;6.10;;;;;;;;;;5035064;28;20048;-91
2022/05/02 16:14:25;;;;;;;24.98;6.25;;;;;;;;;;5018956;28;20052;-90
2022/05/02 16:16:51;;;;;;;33.60;7.18;;;;;;;;;;5019119;28;20039;-90
2022/05/02 16:19:27;;;;;;;28.92;6.38;;;;;;;;;;5034208;28;20041;-89
2022/05/02 16:21:54;;;;;;;36.42;7.95;;;;;;;;;;5035808;28;20038;-90
2022/05/02 16:24:21;;;;;;;31.33;6.90;;;;;;;;;;5031766;28;20061;-90
2022/05/02 16:27:02;;;;;;;28.30;6.78;;;;;;;;;;5029761;28;20033;-90
2022/05/02 16:29:29;;;;;;;43.20;7.50;;;;;;;;;;5030311;28;20034;-90
2022/05/02 16:32:04;;;;;;;34.42;7.20;;;;;;;;;;5018439;28;20029;-91
2022/05/02 16:34:44;;;;;;;40.78;7.57;;;;;;;;;;5033554;28;20144;-90
2022/05/02 16:37:13;;;;;;;24.38;7.80;;;;;;;;;;5030585;28;20030;-90
2022/05/02 16:39:40;;;;;;;33.33;8.38;;;;;;;;;;5018047;28;20049;-90
2022/05/02 16:42:28;;;;;;;37.55;8.65;;;;;;;;;;5019039;28;20120;-90
2022/05/02 16:45:01;;;;;;;31.48;7.70;;;;;;;;;;5030122;28;20045;-90
2022/05/02 16:50:40;;;;;;;29.45;8.10;;;;;;;;;;5031376;28;20519;-90
2022/05/02 16:53:07;;;;;;;27.88;7.53;;;;;;;;;;5015965;28;20380;-91
2022/05/02 16:55:38;;;;;;;29.65;7.25;;;;;;;;;;5029520;28;20432;-90
2022/05/02 16:58:07;;;;;;;29.00;7.28;;;;;;;;;;5015884;28;20042;-90
2022/05/02 17:00:36;;;;;;;26.15;6.78;;;;;;;;;;5029986;28;20034;-90
2022/05/02 17:03:09;;;;;;;28.75;7.45;;;;;;;;;;5033845;28;20504;-90